createdAt,value
2017-01-10T00:00:53.866Z,20.5
2017-01-10T00:01:54.523Z,20.5
2017-01-10T00:02:53.535Z,20.59
2017-01-10T00:03:53.887Z,20.5
2017-01-10T00:04:53.892Z,20.7
2017-01-10T00:05:53.605Z,20.5
2017-01-10T00:06:53.965Z,20.41
2017-01-10T00:07:53.517Z,20.7
2017-01-10T00:08:53.530Z,20.41
2017-01-10T00:09:53.586Z,20.21
2017-01-10T00:10:53.591Z,20.12
2017-01-10T00:11:53.597Z,20.21
2017-01-10T00:12:54.323Z,20.61
2017-01-10T00:13:54.009Z,20.61
2017-01-10T00:14:53.571Z,20.69
2017-01-10T00:15:53.624Z,20.41
2017-01-10T00:16:53.631Z,20.21
2017-01-10T00:17:54.036Z,20.21
2017-01-10T00:18:53.647Z,20.21
2017-01-10T00:19:54.101Z,20.4
2017-01-10T00:20:53.608Z,20.61
2017-01-10T00:21:53.621Z,20.21
2017-01-10T00:22:54.069Z,20.31
2017-01-10T00:23:53.733Z,20.21
2017-01-10T00:24:54.035Z,20.21
2017-01-10T00:25:53.698Z,20.41
2017-01-10T00:26:54.051Z,20.31
2017-01-10T00:27:54.303Z,20.31
2017-01-10T00:28:54.060Z,20.12
2017-01-10T00:29:53.721Z,20.4
2017-01-10T00:30:54.074Z,20.21
2017-01-10T00:31:54.084Z,20.21
2017-01-10T00:32:54.141Z,20.21
2017-01-10T00:33:53.701Z,20.41
2017-01-10T00:34:54.104Z,20.4
2017-01-10T00:35:54.160Z,20.12
2017-01-10T00:36:55.222Z,20.4
2017-01-10T00:37:54.176Z,20.41
2017-01-10T00:38:54.188Z,20.51
2017-01-10T00:39:54.192Z,20.31
2017-01-10T00:40:54.195Z,20.31
2017-01-10T00:41:53.811Z,20.21
2017-01-10T00:42:54.211Z,20.31
2017-01-10T00:43:53.871Z,20.31
2017-01-10T00:44:54.176Z,20.41
2017-01-10T00:45:54.182Z,20.03
2017-01-10T00:46:54.191Z,20.21
2017-01-10T00:47:55.198Z,20.41
2017-01-10T00:48:54.253Z,20.41
2017-01-10T00:49:54.209Z,20.4
2017-01-10T00:50:54.269Z,20.12
2017-01-10T00:51:54.274Z,20.21
2017-01-10T00:52:54.232Z,20.31
2017-01-10T00:53:53.893Z,20.21
2017-01-10T00:54:54.000Z,20.4
2017-01-10T00:55:54.302Z,20.21
2017-01-10T00:56:53.866Z,20.21
2017-01-10T00:57:54.267Z,20.21
2017-01-10T00:58:55.024Z,20.31
2017-01-10T00:59:54.280Z,20.31
2017-01-10T01:00:54.290Z,20.4
2017-01-10T01:01:54.249Z,20.12
2017-01-10T01:02:54.303Z,20.21
2017-01-10T01:03:54.312Z,20.01
2017-01-10T01:04:53.970Z,20.03
2017-01-10T01:05:53.982Z,20.31
2017-01-10T01:06:53.936Z,20.21
2017-01-10T01:07:54.390Z,20.31
2017-01-10T01:08:54.051Z,20.4
2017-01-10T01:09:54.507Z,20.31
2017-01-10T01:10:54.358Z,20.4
2017-01-10T01:11:54.417Z,20.4
2017-01-10T01:12:54.059Z,20.4
2017-01-10T01:13:54.934Z,20.31
2017-01-10T01:14:54.388Z,20.4
2017-01-10T01:15:54.394Z,20.4
2017-01-10T01:16:54.401Z,20.4
2017-01-10T01:17:54.014Z,20.4
2017-01-10T01:18:54.468Z,20.31
2017-01-10T01:19:54.504Z,20.4
2017-01-10T01:20:54.477Z,20.4
2017-01-10T01:21:54.489Z,20.4
2017-01-10T01:22:54.049Z,20.4
2017-01-10T01:23:54.448Z,20.4
2017-01-10T01:24:54.959Z,20.01
2017-01-10T01:25:54.471Z,20.21
2017-01-10T01:26:54.523Z,20.59
2017-01-10T01:27:54.085Z,20.11
2017-01-10T01:28:54.485Z,20.5
2017-01-10T01:29:54.097Z,20.4
2017-01-10T01:30:54.550Z,20.21
2017-01-10T01:31:54.506Z,20.31
2017-01-10T01:32:54.166Z,20.5
2017-01-10T01:33:54.521Z,20.11
2017-01-10T01:34:54.134Z,20.31
2017-01-10T01:35:55.437Z,20.11
2017-01-10T01:36:54.144Z,20.11
2017-01-10T01:37:54.225Z,20.5
2017-01-10T01:38:54.557Z,20.31
2017-01-10T01:39:54.168Z,20.59
2017-01-10T01:40:54.569Z,20.5
2017-01-10T01:41:54.629Z,20.31
2017-01-10T01:42:54.190Z,20.4
2017-01-10T01:43:54.195Z,20.31
2017-01-10T01:44:54.202Z,20.01
2017-01-10T01:45:54.606Z,20.5
2017-01-10T01:46:54.818Z,20.4
2017-01-10T01:47:54.619Z,20.21
2017-01-10T01:48:54.279Z,20.21
2017-01-10T01:49:54.340Z,20.11
2017-01-10T01:50:54.642Z,20.5
2017-01-10T01:51:54.250Z,20.59
2017-01-10T01:52:54.652Z,20.59
2017-01-10T01:53:54.363Z,20.59
2017-01-10T01:54:54.321Z,20.4
2017-01-10T01:55:55.631Z,20.21
2017-01-10T01:56:54.336Z,20.21
2017-01-10T01:57:54.937Z,20.4
2017-01-10T01:58:54.302Z,20.5
2017-01-10T01:59:54.753Z,20.21
2017-01-10T02:00:54.719Z,20.21
2017-01-10T02:01:54.371Z,20.59
2017-01-10T02:02:54.776Z,20.59
2017-01-10T02:03:54.382Z,20.4
2017-01-10T02:04:54.789Z,20.4
2017-01-10T02:05:54.349Z,20.59
2017-01-10T02:06:54.769Z,20.59
2017-01-10T02:07:54.764Z,20.31
2017-01-10T02:08:54.368Z,20.59
2017-01-10T02:09:54.376Z,20.21
2017-01-10T02:10:55.485Z,20.21
2017-01-10T02:11:54.442Z,20.31
2017-01-10T02:12:54.400Z,20.5
2017-01-10T02:13:54.854Z,20.01
2017-01-10T02:14:54.858Z,20.31
2017-01-10T02:15:54.422Z,20.21
2017-01-10T02:16:54.528Z,20.4
2017-01-10T02:17:54.933Z,20.31
2017-01-10T02:18:54.490Z,20.5
2017-01-10T02:19:54.450Z,20.5
2017-01-10T02:20:54.506Z,20.21
2017-01-10T02:21:55.564Z,20.4
2017-01-10T02:22:54.914Z,20.4
2017-01-10T02:23:54.871Z,20.5
2017-01-10T02:24:54.531Z,20.31
2017-01-10T02:25:54.541Z,20.31
2017-01-10T02:26:54.898Z,20.21
2017-01-10T02:27:54.555Z,20.21
2017-01-10T02:28:54.907Z,20.31
2017-01-10T02:29:54.965Z,20.5
2017-01-10T02:30:54.924Z,20.5
2017-01-10T02:31:54.932Z,20.4
2017-01-10T02:32:54.942Z,20.59
2017-01-10T02:33:54.597Z,20.31
2017-01-10T02:34:54.602Z,20.59
2017-01-10T02:35:55.007Z,20.5
2017-01-10T02:36:54.623Z,20.21
2017-01-10T02:37:54.627Z,20.4
2017-01-10T02:38:54.979Z,20.4
2017-01-10T02:39:55.087Z,20.59
2017-01-10T02:40:55.041Z,20.01
2017-01-10T02:41:56.124Z,20.21
2017-01-10T02:42:55.058Z,20.31
2017-01-10T02:43:55.164Z,19.92
2017-01-10T02:44:54.623Z,20.4
2017-01-10T02:45:55.028Z,20.59
2017-01-10T02:46:54.641Z,20.4
2017-01-10T02:47:54.650Z,20.11
2017-01-10T02:48:55.100Z,20.11
2017-01-10T02:49:54.711Z,20.31
2017-01-10T02:50:55.114Z,20.21
2017-01-10T02:51:54.677Z,20.21
2017-01-10T02:52:55.126Z,20.59
2017-01-10T02:53:55.183Z,20.4
2017-01-10T02:54:55.391Z,20.01
2017-01-10T02:55:54.752Z,20.01
2017-01-10T02:56:56.204Z,20.01
2017-01-10T02:57:55.117Z,20.21
2017-01-10T02:58:54.724Z,20.11
2017-01-10T02:59:55.176Z,19.92
2017-01-10T03:00:55.229Z,20.21
2017-01-10T03:01:55.240Z,19.92
2017-01-10T03:02:54.749Z,20.11
2017-01-10T03:03:54.756Z,20.21
2017-01-10T03:04:54.762Z,20.11
2017-01-10T03:05:55.219Z,20.21
2017-01-10T03:06:54.876Z,20.11
2017-01-10T03:07:54.785Z,20.11
2017-01-10T03:08:55.240Z,19.92
2017-01-10T03:09:55.195Z,20.01
2017-01-10T03:10:55.303Z,19.92
2017-01-10T03:11:54.864Z,19.92
2017-01-10T03:12:54.873Z,19.92
2017-01-10T03:13:54.877Z,20.21
2017-01-10T03:14:55.259Z,20.11
2017-01-10T03:15:55.338Z,19.73
2017-01-10T03:16:55.345Z,19.92
2017-01-10T03:17:54.856Z,19.92
2017-01-10T03:18:56.428Z,19.73
2017-01-10T03:19:54.868Z,19.92
2017-01-10T03:20:55.276Z,20.11
2017-01-10T03:21:54.881Z,20.21
2017-01-10T03:22:54.940Z,19.82
2017-01-10T03:23:55.290Z,19.73
2017-01-10T03:24:55.756Z,19.73
2017-01-10T03:25:54.961Z,20.01
2017-01-10T03:26:54.919Z,19.92
2017-01-10T03:27:55.401Z,19.73
2017-01-10T03:28:54.981Z,20.11
2017-01-10T03:29:56.054Z,20.11
2017-01-10T03:30:55.399Z,19.92
2017-01-10T03:31:55.399Z,20.11
2017-01-10T03:32:55.355Z,19.92
2017-01-10T03:33:55.419Z,19.92
2017-01-10T03:34:55.420Z,19.82
2017-01-10T03:35:55.426Z,20.01
2017-01-10T03:36:55.486Z,19.82
2017-01-10T03:37:55.441Z,20.11
2017-01-10T03:38:55.447Z,19.82
2017-01-10T03:39:55.407Z,19.82
2017-01-10T03:40:56.163Z,20.01
2017-01-10T03:41:55.034Z,19.82
2017-01-10T03:42:55.081Z,19.82
2017-01-10T03:43:55.136Z,19.82
2017-01-10T03:44:55.490Z,20.01
2017-01-10T03:45:55.100Z,19.82
2017-01-10T03:46:55.453Z,20.01
2017-01-10T03:47:55.460Z,20.11
2017-01-10T03:48:55.072Z,20.01
2017-01-10T03:49:55.780Z,19.92
2017-01-10T03:50:55.534Z,19.92
2017-01-10T03:51:56.039Z,19.92
2017-01-10T03:52:55.547Z,19.82
2017-01-10T03:53:55.502Z,19.73
2017-01-10T03:54:55.168Z,20.11
2017-01-10T03:55:55.616Z,19.82
2017-01-10T03:56:55.178Z,20.11
2017-01-10T03:57:55.137Z,19.73
2017-01-10T03:58:55.587Z,19.73
2017-01-10T03:59:55.152Z,19.92
2017-01-10T04:00:55.155Z,20.01
2017-01-10T04:01:55.558Z,20.11
2017-01-10T04:02:56.117Z,19.92
2017-01-10T04:03:55.624Z,19.73
2017-01-10T04:04:55.185Z,19.73
2017-01-10T04:05:55.194Z,19.82
2017-01-10T04:06:55.895Z,19.82
2017-01-10T04:07:55.204Z,19.82
2017-01-10T04:08:55.658Z,19.73
2017-01-10T04:09:55.615Z,19.82
2017-01-10T04:10:55.232Z,19.82
2017-01-10T04:11:55.676Z,19.73
2017-01-10T04:12:55.291Z,19.92
2017-01-10T04:13:56.092Z,19.73
2017-01-10T04:14:55.699Z,19.92
2017-01-10T04:15:55.263Z,19.82
2017-01-10T04:16:55.366Z,19.92
2017-01-10T04:17:55.323Z,19.92
2017-01-10T04:18:55.282Z,19.73
2017-01-10T04:19:55.735Z,19.92
2017-01-10T04:20:55.694Z,19.92
2017-01-10T04:21:55.698Z,19.92
2017-01-10T04:22:55.755Z,19.92
2017-01-10T04:23:55.713Z,19.92
2017-01-10T04:24:55.724Z,20.11
2017-01-10T04:25:55.727Z,19.63
2017-01-10T04:26:55.808Z,19.73
2017-01-10T04:27:55.740Z,19.82
2017-01-10T04:28:56.301Z,20.01
2017-01-10T04:29:55.758Z,19.73
2017-01-10T04:30:55.858Z,20.11
2017-01-10T04:31:55.816Z,19.73
2017-01-10T04:32:55.480Z,19.73
2017-01-10T04:33:55.385Z,19.92
2017-01-10T04:34:55.887Z,19.43
2017-01-10T04:35:55.846Z,20.01
2017-01-10T04:36:55.406Z,19.73
2017-01-10T04:37:55.414Z,20.21
2017-01-10T04:38:55.425Z,19.53
2017-01-10T04:39:56.073Z,20.01
2017-01-10T04:40:55.484Z,19.82
2017-01-10T04:41:55.887Z,19.82
2017-01-10T04:42:55.748Z,19.73
2017-01-10T04:43:55.504Z,19.82
2017-01-10T04:44:55.512Z,20.01
2017-01-10T04:45:55.528Z,19.92
2017-01-10T04:46:55.477Z,20.21
2017-01-10T04:47:55.878Z,19.73
2017-01-10T04:48:57.087Z,19.43
2017-01-10T04:49:55.945Z,19.73
2017-01-10T04:50:55.954Z,19.43
2017-01-10T04:51:55.907Z,19.43
2017-01-10T04:52:55.966Z,19.43
2017-01-10T04:53:55.626Z,19.43
2017-01-10T04:54:55.597Z,20.21
2017-01-10T04:55:55.936Z,19.73
2017-01-10T04:56:55.943Z,19.73
2017-01-10T04:57:55.553Z,19.43
2017-01-10T04:58:55.565Z,19.73
2017-01-10T04:59:55.570Z,19.73
2017-01-10T05:00:56.328Z,19.73
2017-01-10T05:01:55.584Z,19.92
2017-01-10T05:02:56.088Z,19.82
2017-01-10T05:03:55.646Z,19.43
2017-01-10T05:04:55.604Z,19.34
2017-01-10T05:05:56.056Z,20.31
2017-01-10T05:06:56.114Z,19.43
2017-01-10T05:07:55.677Z,19.82
2017-01-10T05:08:56.077Z,19.82
2017-01-10T05:09:56.092Z,19.73
2017-01-10T05:10:56.546Z,19.43
2017-01-10T05:11:56.099Z,19.63
2017-01-10T05:12:55.873Z,19.73
2017-01-10T05:13:56.113Z,19.63
2017-01-10T05:14:57.221Z,19.73
2017-01-10T05:15:55.679Z,19.43
2017-01-10T05:16:56.089Z,19.73
2017-01-10T05:17:56.092Z,19.63
2017-01-10T05:18:56.149Z,19.82
2017-01-10T05:19:56.105Z,19.73
2017-01-10T05:20:56.162Z,19.82
2017-01-10T05:21:56.218Z,19.63
2017-01-10T05:22:56.127Z,19.82
2017-01-10T05:23:55.838Z,19.82
2017-01-10T05:24:55.796Z,19.83
2017-01-10T05:25:56.704Z,19.43
2017-01-10T05:26:56.155Z,19.53
2017-01-10T05:27:56.163Z,19.92
2017-01-10T05:28:56.221Z,19.92
2017-01-10T05:29:56.176Z,19.73
2017-01-10T05:30:56.232Z,19.93
2017-01-10T05:31:56.240Z,19.92
2017-01-10T05:32:55.904Z,19.82
2017-01-10T05:33:56.254Z,19.82
2017-01-10T05:34:56.216Z,19.93
2017-01-10T05:35:56.267Z,19.53
2017-01-10T05:36:57.075Z,19.92
2017-01-10T05:37:55.935Z,19.43
2017-01-10T05:38:56.350Z,20.01
2017-01-10T05:39:55.852Z,20.01
2017-01-10T05:40:55.908Z,20.01
2017-01-10T05:41:55.920Z,19.93
2017-01-10T05:42:55.970Z,19.53
2017-01-10T05:43:56.325Z,19.53
2017-01-10T05:44:55.934Z,19.82
2017-01-10T05:45:56.288Z,19.82
2017-01-10T05:46:55.901Z,19.63
2017-01-10T05:47:56.807Z,19.63
2017-01-10T05:48:55.914Z,19.63
2017-01-10T05:49:55.972Z,19.92
2017-01-10T05:50:55.978Z,19.63
2017-01-10T05:51:56.329Z,19.63
2017-01-10T05:52:55.943Z,19.82
2017-01-10T05:53:56.447Z,19.64
2017-01-10T05:54:56.450Z,19.43
2017-01-10T05:55:56.010Z,19.63
2017-01-10T05:56:55.970Z,19.82
2017-01-10T05:57:55.978Z,19.92
2017-01-10T05:58:57.134Z,19.73
2017-01-10T05:59:56.387Z,19.43
2017-01-10T06:00:56.003Z,19.82
2017-01-10T06:01:56.400Z,19.53
2017-01-10T06:02:56.457Z,19.63
2017-01-10T06:03:56.417Z,19.82
2017-01-10T06:04:56.026Z,19.92
2017-01-10T06:05:56.477Z,20.03
2017-01-10T06:06:56.434Z,19.73
2017-01-10T06:07:56.096Z,19.73
2017-01-10T06:08:56.551Z,19.53
2017-01-10T06:09:56.612Z,19.63
2017-01-10T06:10:56.123Z,19.63
2017-01-10T06:11:56.123Z,19.73
2017-01-10T06:12:56.477Z,19.45
2017-01-10T06:13:56.583Z,20.01
2017-01-10T06:14:56.539Z,19.53
2017-01-10T06:15:56.549Z,19.63
2017-01-10T06:16:56.110Z,20.01
2017-01-10T06:17:56.513Z,19.92
2017-01-10T06:18:56.572Z,20.11
2017-01-10T06:19:56.577Z,19.63
2017-01-10T06:20:56.741Z,19.43
2017-01-10T06:21:56.592Z,19.64
2017-01-10T06:22:56.598Z,19.73
2017-01-10T06:23:56.208Z,20.01
2017-01-10T06:24:56.568Z,19.73
2017-01-10T06:25:56.174Z,19.63
2017-01-10T06:26:56.674Z,19.73
2017-01-10T06:27:56.582Z,19.73
2017-01-10T06:28:56.594Z,19.82
2017-01-10T06:29:56.596Z,19.82
2017-01-10T06:30:56.654Z,19.63
2017-01-10T06:31:56.611Z,19.73
2017-01-10T06:32:56.273Z,19.92
2017-01-10T06:33:56.227Z,19.73
2017-01-10T06:34:56.684Z,19.92
2017-01-10T06:35:56.688Z,20.01
2017-01-10T06:36:56.251Z,20.01
2017-01-10T06:37:56.655Z,19.63
2017-01-10T06:38:56.266Z,19.54
2017-01-10T06:39:56.723Z,19.63
2017-01-10T06:40:56.723Z,19.45
2017-01-10T06:41:56.685Z,19.83
2017-01-10T06:42:56.689Z,19.82
2017-01-10T06:43:56.748Z,19.63
2017-01-10T06:44:57.824Z,19.73
2017-01-10T06:45:56.316Z,19.63
2017-01-10T06:46:56.349Z,20.01
2017-01-10T06:47:56.723Z,19.73
2017-01-10T06:48:56.782Z,19.82
2017-01-10T06:49:56.738Z,20.01
2017-01-10T06:50:56.795Z,19.73
2017-01-10T06:51:56.802Z,20.01
2017-01-10T06:52:56.809Z,19.73
2017-01-10T06:53:56.771Z,19.64
2017-01-10T06:54:56.824Z,19.73
2017-01-10T06:55:57.879Z,19.82
2017-01-10T06:56:56.393Z,19.82
2017-01-10T06:57:56.902Z,19.83
2017-01-10T06:58:56.456Z,19.73
2017-01-10T06:59:56.464Z,19.63
2017-01-10T07:00:56.916Z,20.03
2017-01-10T07:01:56.478Z,19.83
2017-01-10T07:02:56.830Z,19.73
2017-01-10T07:03:56.887Z,19.63
2017-01-10T07:04:56.848Z,19.53
2017-01-10T07:05:56.505Z,19.63
2017-01-10T07:06:57.808Z,19.92
2017-01-10T07:07:56.467Z,19.82
2017-01-10T07:08:56.871Z,19.54
2017-01-10T07:09:56.536Z,20.03
2017-01-10T07:10:56.885Z,19.83
2017-01-10T07:11:56.505Z,19.64
2017-01-10T07:12:56.504Z,20.01
2017-01-10T07:13:56.560Z,19.63
2017-01-10T07:14:56.968Z,20.01
2017-01-10T07:15:56.576Z,19.63
2017-01-10T07:16:57.528Z,19.73
2017-01-10T07:17:57.339Z,19.06
2017-01-10T07:18:56.599Z,19.45
2017-01-10T07:19:56.656Z,18.67
2017-01-10T07:20:56.955Z,18.87
2017-01-10T07:21:56.567Z,18.39
2017-01-10T07:22:56.626Z,18.59
2017-01-10T07:23:56.585Z,18.21
2017-01-10T07:24:57.034Z,18.21
2017-01-10T07:25:56.993Z,18.11
2017-01-10T07:26:57.349Z,17.91
2017-01-10T07:27:57.006Z,17.73
2017-01-10T07:28:57.669Z,17.63
2017-01-10T07:29:57.069Z,17.44
2017-01-10T07:30:56.680Z,17.25
2017-01-10T07:31:56.638Z,16.57
2017-01-10T07:32:56.696Z,16.48
2017-01-10T07:33:56.653Z,16.57
2017-01-10T07:34:56.663Z,16.68
2017-01-10T07:35:57.114Z,16.68
2017-01-10T07:36:56.727Z,16.49
2017-01-10T07:37:56.682Z,16.87
2017-01-10T07:38:56.742Z,16.39
2017-01-10T07:39:57.444Z,16.3
2017-01-10T07:40:56.707Z,16.39
2017-01-10T07:41:56.761Z,16.59
2017-01-10T07:42:56.771Z,16.49
2017-01-10T07:43:57.428Z,16.39
2017-01-10T07:44:57.181Z,15.91
2017-01-10T07:45:57.139Z,16.01
2017-01-10T07:46:57.198Z,15.91
2017-01-10T07:47:56.809Z,15.91
2017-01-10T07:48:57.160Z,16.69
2017-01-10T07:49:57.169Z,15.91
2017-01-10T07:50:57.255Z,15.91
2017-01-10T07:51:56.786Z,16.3
2017-01-10T07:52:58.394Z,16.01
2017-01-10T07:53:56.853Z,15.63
2017-01-10T07:54:56.912Z,16.11
2017-01-10T07:55:56.818Z,15.91
2017-01-10T07:56:56.828Z,16.01
2017-01-10T07:57:57.230Z,16.39
2017-01-10T07:58:56.841Z,15.82
2017-01-10T07:59:56.899Z,15.72
2017-01-10T08:00:57.303Z,16.02
2017-01-10T08:01:56.916Z,16.2
2017-01-10T08:02:56.925Z,16.02
2017-01-10T08:03:58.280Z,16.01
2017-01-10T08:04:57.282Z,16.11
2017-01-10T08:05:57.294Z,16.01
2017-01-10T08:06:57.301Z,15.92
2017-01-10T08:07:57.359Z,15.72
2017-01-10T08:08:57.366Z,15.72
2017-01-10T08:09:56.979Z,15.63
2017-01-10T08:10:57.331Z,16.31
2017-01-10T08:11:57.388Z,16.21
2017-01-10T08:12:57.399Z,15.72
2017-01-10T08:13:57.354Z,16.11
2017-01-10T08:14:57.865Z,16.41
2017-01-10T08:15:57.024Z,16.11
2017-01-10T08:16:57.429Z,16.02
2017-01-10T08:17:57.089Z,15.72
2017-01-10T08:18:57.443Z,15.82
2017-01-10T08:19:57.454Z,15.72
2017-01-10T08:20:57.069Z,16.11
2017-01-10T08:21:57.019Z,16.11
2017-01-10T08:22:57.526Z,15.53
2017-01-10T08:23:57.433Z,16.21
2017-01-10T08:24:57.441Z,15.92
2017-01-10T08:25:57.901Z,16.02
2017-01-10T08:26:57.060Z,16.01
2017-01-10T08:27:57.123Z,16.01
2017-01-10T08:28:57.519Z,16.02
2017-01-10T08:29:57.982Z,16.02
2017-01-10T08:30:57.539Z,16.21
2017-01-10T08:31:57.401Z,15.72
2017-01-10T08:32:57.560Z,16.11
2017-01-10T08:33:57.566Z,16.31
2017-01-10T08:34:57.571Z,15.92
2017-01-10T08:35:57.528Z,16.02
2017-01-10T08:36:57.587Z,15.92
2017-01-10T08:37:57.548Z,15.81
2017-01-10T08:38:57.158Z,16.02
2017-01-10T08:39:57.215Z,15.92
2017-01-10T08:40:57.819Z,15.92
2017-01-10T08:41:57.281Z,16.02
2017-01-10T08:42:57.885Z,16.02
2017-01-10T08:43:57.297Z,15.91
2017-01-10T08:44:57.602Z,16.3
2017-01-10T08:45:57.214Z,16.2
2017-01-10T08:46:57.220Z,16.11
2017-01-10T08:47:57.230Z,15.91
2017-01-10T08:48:57.683Z,15.92
2017-01-10T08:49:58.806Z,16.21
2017-01-10T08:50:57.304Z,16.69
2017-01-10T08:51:57.757Z,16.59
2017-01-10T08:52:57.665Z,16.39
2017-01-10T08:53:57.675Z,16.49
2017-01-10T08:54:57.983Z,16.59
2017-01-10T08:55:57.739Z,16.02
2017-01-10T08:56:57.748Z,16.02
2017-01-10T08:57:57.308Z,16.6
2017-01-10T08:58:57.712Z,16.59
2017-01-10T08:59:57.433Z,16.3
2017-01-10T09:00:58.580Z,16.3
2017-01-10T09:01:57.787Z,16.31
2017-01-10T09:02:57.351Z,16.39
2017-01-10T09:03:57.755Z,16.3
2017-01-10T09:04:57.811Z,16.01
2017-01-10T09:05:57.375Z,16.6
2017-01-10T09:06:57.430Z,16.59
2017-01-10T09:07:57.836Z,16.2
2017-01-10T09:08:57.448Z,16.3
2017-01-10T09:09:57.805Z,16.39
2017-01-10T09:10:57.515Z,16.39
2017-01-10T09:11:58.571Z,16.39
2017-01-10T09:12:57.431Z,16.39
2017-01-10T09:13:57.885Z,16.59
2017-01-10T09:14:57.497Z,16.2
2017-01-10T09:15:58.803Z,15.82
2017-01-10T09:16:57.910Z,16.31
2017-01-10T09:17:57.927Z,16.59
2017-01-10T09:18:57.878Z,16.39
2017-01-10T09:19:57.934Z,16.39
2017-01-10T09:20:57.993Z,16.69
2017-01-10T09:21:57.556Z,16.39
2017-01-10T09:22:57.570Z,16.39
2017-01-10T09:23:57.519Z,15.92
2017-01-10T09:24:57.927Z,15.92
2017-01-10T09:25:57.586Z,16.21
2017-01-10T09:26:58.248Z,16.49
2017-01-10T09:27:57.996Z,16.41
2017-01-10T09:28:57.612Z,16.3
2017-01-10T09:29:58.017Z,16.78
2017-01-10T09:30:57.974Z,16.3
2017-01-10T09:31:57.637Z,16.39
2017-01-10T09:32:58.039Z,16.49
2017-01-10T09:33:57.606Z,16.59
2017-01-10T09:34:58.011Z,15.91
2017-01-10T09:35:57.670Z,16.5
2017-01-10T09:36:58.073Z,16.39
2017-01-10T09:37:58.688Z,16.49
2017-01-10T09:38:58.039Z,16.2
2017-01-10T09:39:57.653Z,16.59
2017-01-10T09:40:57.709Z,16.2
2017-01-10T09:41:57.668Z,16.5
2017-01-10T09:42:57.773Z,15.82
2017-01-10T09:43:57.732Z,16.31
2017-01-10T09:44:57.690Z,16.41
2017-01-10T09:45:57.699Z,16.39
2017-01-10T09:46:58.106Z,16.6
2017-01-10T09:47:57.715Z,16.78
2017-01-10T09:48:58.423Z,16.59
2017-01-10T09:49:58.180Z,16.59
2017-01-10T09:50:58.133Z,16.6
2017-01-10T09:51:57.801Z,16.6
2017-01-10T09:52:57.758Z,16.3
2017-01-10T09:53:58.209Z,16.39
2017-01-10T09:54:58.195Z,16.39
2017-01-10T09:55:57.834Z,16.3
2017-01-10T09:56:58.184Z,16.49
2017-01-10T09:57:59.167Z,16.6
2017-01-10T09:58:57.808Z,15.82
2017-01-10T09:59:58.712Z,15.92
2017-01-10T10:00:57.867Z,16.59
2017-01-10T10:01:57.827Z,16.6
2017-01-10T10:02:57.835Z,16.11
2017-01-10T10:03:58.288Z,16.6
2017-01-10T10:04:58.297Z,16.5
2017-01-10T10:05:57.912Z,16.69
2017-01-10T10:06:57.868Z,16.59
2017-01-10T10:07:57.926Z,15.92
2017-01-10T10:08:58.330Z,15.92
2017-01-10T10:09:58.288Z,16.02
2017-01-10T10:10:58.050Z,16.6
2017-01-10T10:11:58.354Z,16.6
2017-01-10T10:12:57.969Z,16.31
2017-01-10T10:13:57.974Z,15.92
2017-01-10T10:14:58.377Z,16.6
2017-01-10T10:15:57.941Z,16.41
2017-01-10T10:16:58.049Z,16.3
2017-01-10T10:17:58.352Z,16.11
2017-01-10T10:18:58.410Z,15.82
2017-01-10T10:19:57.975Z,16.21
2017-01-10T10:20:58.427Z,16.5
2017-01-10T10:21:58.138Z,16.49
2017-01-10T10:22:58.048Z,16.49
2017-01-10T10:23:59.509Z,16.41
2017-01-10T10:24:58.409Z,16.39
2017-01-10T10:25:58.419Z,16.02
2017-01-10T10:26:58.425Z,16.11
2017-01-10T10:27:58.039Z,15.92
2017-01-10T10:28:58.490Z,16.11
2017-01-10T10:29:58.502Z,16.31
2017-01-10T10:30:58.465Z,16.31
2017-01-10T10:31:59.069Z,16.41
2017-01-10T10:32:58.571Z,16.41
2017-01-10T10:33:58.082Z,16.41
2017-01-10T10:34:59.193Z,16.21
2017-01-10T10:35:58.100Z,16.6
2017-01-10T10:36:58.506Z,16.21
2017-01-10T10:37:58.562Z,16.02
2017-01-10T10:38:58.572Z,16.5
2017-01-10T10:39:58.182Z,16.59
2017-01-10T10:40:58.536Z,16.59
2017-01-10T10:41:58.543Z,16.69
2017-01-10T10:42:58.206Z,16.78
2017-01-10T10:43:58.610Z,16.59
2017-01-10T10:44:58.173Z,16.5
2017-01-10T10:45:59.528Z,16.5
2017-01-10T10:46:58.584Z,16.02
2017-01-10T10:47:58.694Z,16.41
2017-01-10T10:48:58.208Z,16.88
2017-01-10T10:49:58.264Z,16.69
2017-01-10T10:50:58.662Z,16.69
2017-01-10T10:51:58.671Z,16.59
2017-01-10T10:52:58.635Z,16.49
2017-01-10T10:53:58.689Z,16.69
2017-01-10T10:54:58.743Z,16.69
2017-01-10T10:55:58.258Z,16.3
2017-01-10T10:56:59.118Z,16.5
2017-01-10T10:57:58.962Z,16.88
2017-01-10T10:58:58.728Z,16.78
2017-01-10T10:59:58.390Z,16.69
2017-01-10T11:00:58.743Z,16.78
2017-01-10T11:01:58.707Z,16.59
2017-01-10T11:02:58.311Z,16.3
2017-01-10T11:03:58.383Z,16.5
2017-01-10T11:04:58.745Z,16.5
2017-01-10T11:05:58.732Z,16.69
2017-01-10T11:06:58.841Z,16.69
2017-01-10T11:07:59.800Z,16.69
2017-01-10T11:08:58.460Z,16.59
2017-01-10T11:09:58.418Z,16.78
2017-01-10T11:10:58.773Z,16.78
2017-01-10T11:11:58.831Z,16.69
2017-01-10T11:12:58.801Z,16.41
2017-01-10T11:13:58.794Z,16.41
2017-01-10T11:14:58.820Z,16.69
2017-01-10T11:15:58.514Z,16.69
2017-01-10T11:16:58.973Z,16.49
2017-01-10T11:17:58.877Z,16.69
2017-01-10T11:18:59.820Z,16.49
2017-01-10T11:19:58.894Z,16.79
2017-01-10T11:20:58.901Z,16.02
2017-01-10T11:21:58.515Z,16.41
2017-01-10T11:23:58.530Z,16.78
2017-01-10T11:24:58.538Z,16.69
2017-01-10T11:25:58.546Z,16.78
2017-01-10T11:26:58.960Z,16.6
2017-01-10T11:27:58.564Z,16.69
2017-01-10T11:28:58.969Z,16.6
2017-01-10T11:29:58.928Z,16.78
2017-01-10T11:30:58.842Z,16.6
2017-01-10T11:31:58.992Z,16.88
2017-01-10T11:32:59.016Z,16.69
2017-01-10T11:33:59.010Z,17.08
2017-01-10T11:34:59.118Z,17.18
2017-01-10T11:35:59.037Z,17.18
2017-01-10T11:36:59.125Z,17.18
2017-01-10T11:37:59.063Z,16.98
2017-01-10T11:38:59.302Z,17.18
2017-01-10T11:39:58.703Z,17.27
2017-01-10T11:40:59.116Z,17.47
2017-01-10T11:41:58.720Z,17.36
2017-01-10T11:42:59.080Z,17.08
2017-01-10T11:43:59.265Z,17.08
2017-01-10T11:44:59.045Z,17.56
2017-01-10T11:45:59.053Z,17.46
2017-01-10T11:46:58.667Z,16.98
2017-01-10T11:47:58.728Z,17.76
2017-01-10T11:48:59.078Z,17.66
2017-01-10T11:49:59.197Z,17.76
2017-01-10T11:51:00.168Z,17.66
2017-01-10T11:51:59.104Z,17.08
2017-01-10T11:52:59.197Z,17.27
2017-01-10T11:53:58.826Z,17.56
2017-01-10T11:54:59.175Z,17.08
2017-01-10T11:55:59.215Z,17.38
2017-01-10T11:56:58.742Z,17.27
2017-01-10T11:58:00.334Z,17.56
2017-01-10T11:58:59.273Z,17.08
2017-01-10T11:59:58.768Z,17.76
2017-01-10T12:00:59.273Z,17.85
2017-01-10T12:01:59.181Z,17.66
2017-01-10T12:02:58.880Z,17.27
2017-01-10T12:03:59.193Z,16.98
2017-01-10T12:04:58.859Z,16.98
2017-01-10T12:05:59.263Z,17.08
2017-01-10T12:06:58.957Z,16.98
2017-01-10T12:07:59.352Z,17.28
2017-01-10T12:08:58.890Z,16.98
2017-01-10T12:09:58.897Z,17.66
2017-01-10T12:10:58.855Z,17.66
2017-01-10T12:11:59.356Z,17.95
2017-01-10T12:12:59.323Z,18.15
2017-01-10T12:13:59.100Z,17.84
2017-01-10T12:14:59.421Z,18.15
2017-01-10T12:15:59.323Z,18.05
2017-01-10T12:16:59.415Z,17.95
2017-01-10T12:17:59.308Z,18.24
2017-01-10T12:18:59.349Z,18.24
2017-01-10T12:19:59.372Z,18.24
2017-01-10T12:20:59.401Z,18.15
2017-01-10T12:21:59.372Z,17.85
2017-01-10T12:22:59.449Z,18.62
2017-01-10T12:23:59.474Z,18.24
2017-01-10T12:24:59.016Z,18.92
2017-01-10T12:25:59.024Z,18.63
2017-01-10T12:26:59.463Z,18.24
2017-01-10T12:27:59.513Z,18.15
2017-01-10T12:28:58.997Z,18.53
2017-01-10T12:29:59.379Z,18.63
2017-01-10T12:30:59.508Z,18.82
2017-01-10T12:31:59.522Z,18.63
2017-01-10T12:32:59.498Z,19.02
2017-01-10T12:33:59.086Z,19.02
2017-01-10T12:34:59.561Z,18.92
2017-01-10T12:35:59.548Z,18.63
2017-01-10T12:36:59.586Z,18.82
2017-01-10T12:37:59.608Z,18.63
2017-01-10T12:38:59.522Z,19.02
2017-01-10T12:39:59.178Z,18.53
2017-01-10T12:40:59.489Z,18.33
2017-01-10T12:41:59.660Z,18.15
2017-01-10T12:42:59.309Z,17.95
2017-01-10T12:44:00.480Z,17.86
2017-01-10T12:44:59.610Z,18.33
2017-01-10T12:45:59.132Z,18.73
2017-01-10T12:46:59.243Z,18.43
2017-01-10T12:47:59.671Z,18.33
2017-01-10T12:49:00.574Z,18.43
2017-01-10T12:49:59.639Z,18.53
2017-01-10T12:50:59.728Z,17.85
2017-01-10T12:51:59.651Z,17.96
2017-01-10T12:52:59.635Z,18.05
2017-01-10T12:53:59.643Z,17.96
2017-01-10T12:54:59.669Z,18.25
2017-01-10T12:55:59.751Z,18.44
2017-01-10T12:56:59.688Z,18.35